Time;durP1;ratioP1;P1;durP2;ratioP2;P2;SDS_P1;SDS_P2;PMS_P1;PMS_P2;Temp;Humidity;BMP_temperature;BMP_pressure;BME280_temperature;BME280_humidity;BME280_pressure;Samples;Min_cycle;Max_cycle;Signal;HPM_P1;HPM_P2
2023/12/04 00:00:15;;;;;;;;;;;;;;;;;;4917471;28;19929;-66
2023/12/04 00:02:45;;;;;;;;;;;;;;;;;;4893810;29;19923;-66
2023/12/04 00:05:10;;;;;;;;;;;;;;;;;;4892594;29;19926;-66
2023/12/04 00:07:38;;;;;;;;;;;;;;;;;;4893055;29;19938;-66
2023/12/04 00:10:06;;;;;;;;;;;;;;;;;;4922431;28;19923;-66
2023/12/04 00:12:34;;;;;;;;;;;;;;;;;;4911684;29;19968;-66
2023/12/04 00:15:02;;;;;;;;;;;;;;;;;;4929318;28;19965;-66
2023/12/04 00:17:27;;;;;;;;;;;;;;;;;;4929509;28;19919;-65
2023/12/04 00:19:53;;;;;;;;;;;;;;;;;;4912327;29;19919;-66
2023/12/04 00:22:18;;;;;;;;;;;;;;;;;;4927286;28;20052;-66
2023/12/04 00:24:46;;;;;;;;;;;;;;;;;;4914984;29;19930;-67
2023/12/04 00:27:11;;;;;;;;;;;;;;;;;;4927995;28;19919;-65
2023/12/04 00:29:40;;;;;;;;;;;;;;;;;;4929819;28;19929;-65
2023/12/04 00:32:05;;;;;;;;;;;;;;;;;;4927301;28;19966;-66
2023/12/04 00:34:30;;;;;;;;;;;;;;;;;;4929784;28;20053;-66
2023/12/04 00:36:56;;;;;;;;;;;;;;;;;;4915103;29;19922;-66
2023/12/04 00:39:24;;;;;;;;;;;;;;;;;;4929599;28;19923;-67
2023/12/04 00:41:52;;;;;;;;;;;;;;;;;;4914378;29;19918;-66
2023/12/04 00:44:17;;;;;;;;;;;;;;;;;;4914335;29;19974;-67
2023/12/04 00:46:45;;;;;;;;;;;;;;;;;;4912292;29;20109;-66
2023/12/04 00:49:13;;;;;;;;;;;;;;;;;;4913446;29;20378;-66
2023/12/04 00:51:41;;;;;;;;;;;;;;;;;;4928874;28;19938;-67
2023/12/04 00:54:10;;;;;;;;;;;;;;;;;;4915970;29;19934;-67
2023/12/04 00:56:37;;;;;;;;;;;;;;;;;;4915885;29;19977;-67
2023/12/04 00:59:03;;;;;;;;;;;;;;;;;;4928836;28;20038;-66
2023/12/04 01:01:29;;;;;;;;;;;;;;;;;;4911542;29;19918;-67
2023/12/04 01:03:54;;;;;;;;;;;;;;;;;;4914738;29;19929;-66
2023/12/04 01:06:20;;;;;;;;;;;;;;;;;;4914551;29;19923;-66
2023/12/04 01:08:46;;;;;;;;;;;;;;;;;;4915223;29;19926;-66
2023/12/04 01:11:14;;;;;;;;;;;;;;;;;;4909224;29;19927;-67
2023/12/04 01:13:42;;;;;;;;;;;;;;;;;;4928462;28;19926;-66
2023/12/04 01:16:10;;;;;;;;;;;;;;;;;;4913027;29;20123;-66
2023/12/04 01:18:35;;;;;;;;;;;;;;;;;;4928739;28;20294;-67
2023/12/04 01:21:03;;;;;;;;;;;;;;;;;;4913712;29;20082;-66
2023/12/04 01:23:30;;;;;;;;;;;;;;;;;;4927429;28;19919;-67
2023/12/04 01:25:56;;;;;;;;;;;;;;;;;;4928688;28;20130;-66
2023/12/04 01:28:26;;;;;;;;;;;;;;;;;;4909766;29;19929;-67
2023/12/04 01:30:54;;;;;;;;;;;;;;;;;;4929319;28;20008;-68
2023/12/04 01:33:20;;;;;;;;;;;;;;;;;;4927524;28;19923;-69
2023/12/04 01:35:48;;;;;;;;;;;;;;;;;;4914446;29;20282;-68
2023/12/04 01:38:16;;;;;;;;;;;;;;;;;;4913408;29;20431;-65
2023/12/04 01:40:41;;;;;;;;;;;;;;;;;;4911562;29;19919;-67
2023/12/04 01:43:07;;;;;;;;;;;;;;;;;;4914045;29;20010;-69
2023/12/04 01:45:32;;;;;;;;;;;;;;;;;;4911571;29;19946;-68
2023/12/04 01:48:01;;;;;;;;;;;;;;;;;;4914165;29;19925;-68
2023/12/04 01:50:28;;;;;;;;;;;;;;;;;;4912136;29;19923;-68
2023/12/04 01:52:57;;;;;;;;;;;;;;;;;;4928370;28;20006;-67
2023/12/04 01:55:22;;;;;;;;;;;;;;;;;;4926430;28;19929;-69
2023/12/04 01:57:48;;;;;;;;;;;;;;;;;;4912151;29;19923;-68
2023/12/04 02:00:16;;;;;;;;;;;;;;;;;;4927190;28;19930;-68
2023/12/04 02:02:44;;;;;;;;;;;;;;;;;;4913647;29;19923;-70
2023/12/04 02:05:15;;;;;;;;;;;;;;;;;;4911439;29;19926;-70
2023/12/04 02:07:40;;;;;;;;;;;;;;;;;;4897748;29;19922;-68
2023/12/04 02:10:08;;;;;;;;;;;;;;;;;;4928212;28;19926;-71
2023/12/04 02:12:39;;;;;;;;;;;;;;;;;;4912758;29;19930;-72
2023/12/04 02:15:05;;;;;;;;;;;;;;;;;;4925158;28;20302;-71
2023/12/04 02:17:33;;;;;;;;;;;;;;;;;;4911522;29;19927;-70
2023/12/04 02:19:58;;;;;;;;;;;;;;;;;;4912858;29;19969;-69
2023/12/04 02:22:26;;;;;;;;;;;;;;;;;;4912579;29;19923;-69
2023/12/04 02:24:58;;;;;;;;;;;;;;;;;;4927891;28;19922;-68
2023/12/04 02:27:23;;;;;;;;;;;;;;;;;;4925792;28;19918;-68
2023/12/04 02:29:51;;;;;;;;;;;;;;;;;;4927369;28;19974;-68
2023/12/04 02:32:17;;;;;;;;;;;;;;;;;;4927011;28;19923;-66
2023/12/04 02:34:45;;;;;;;;;;;;;;;;;;4910190;29;20409;-67
2023/12/04 02:37:10;;;;;;;;;;;;;;;;;;4925706;28;20382;-67
2023/12/04 02:39:38;;;;;;;;;;;;;;;;;;4926042;28;19981;-66
2023/12/04 02:42:06;;;;;;;;;;;;;;;;;;4913028;29;19919;-67
2023/12/04 02:44:32;;;;;;;;;;;;;;;;;;4927092;28;19926;-66
2023/12/04 02:46:58;;;;;;;;;;;;;;;;;;4910489;29;20112;-67
2023/12/04 02:49:23;;;;;;;;;;;;;;;;;;4912125;29;20649;-67
2023/12/04 02:51:48;;;;;;;;;;;;;;;;;;4925444;28;19922;-67
2023/12/04 02:54:14;;;;;;;;;;;;;;;;;;4911703;29;20343;-66
2023/12/04 02:56:39;;;;;;;;;;;;;;;;;;4925753;28;20100;-67
2023/12/04 02:59:05;;;;;;;;;;;;;;;;;;4912386;29;20395;-67
2023/12/04 03:01:30;;;;;;;;;;;;;;;;;;4925898;28;19971;-68
2023/12/04 03:03:55;;;;;;;;;;;;;;;;;;4897593;29;19922;-68
2023/12/04 03:06:21;;;;;;;;;;;;;;;;;;4910154;29;20234;-66
2023/12/04 03:08:54;;;;;;;;;;;;;;;;;;4912855;29;21613;-66
2023/12/04 03:11:19;;;;;;;;;;;;;;;;;;4925735;28;19977;-67
2023/12/04 03:13:44;;;;;;;;;;;;;;;;;;4924889;28;19926;-67
2023/12/04 03:16:10;;;;;;;;;;;;;;;;;;4911139;29;19935;-68
2023/12/04 03:18:38;;;;;;;;;;;;;;;;;;4926003;28;20247;-67
2023/12/04 03:21:03;;;;;;;;;;;;;;;;;;4926086;28;19958;-67
2023/12/04 03:23:28;;;;;;;;;;;;;;;;;;4911204;29;20025;-66
2023/12/04 03:25:53;;;;;;;;;;;;;;;;;;4911632;29;20586;-67
2023/12/04 03:28:21;;;;;;;;;;;;;;;;;;4926365;28;20264;-68
2023/12/04 03:30:47;;;;;;;;;;;;;;;;;;4910896;29;19936;-68
2023/12/04 03:33:12;;;;;;;;;;;;;;;;;;4925933;28;19927;-66
2023/12/04 03:35:40;;;;;;;;;;;;;;;;;;4896802;29;20282;-68
2023/12/04 03:38:08;;;;;;;;;;;;;;;;;;4922702;28;19923;-67
2023/12/04 03:40:34;;;;;;;;;;;;;;;;;;4925864;28;20298;-68
2023/12/04 03:43:02;;;;;;;;;;;;;;;;;;4911408;29;19950;-68
2023/12/04 03:45:27;;;;;;;;;;;;;;;;;;4909676;29;20018;-68
2023/12/04 03:47:56;;;;;;;;;;;;;;;;;;4910344;29;19944;-68
2023/12/04 03:50:21;;;;;;;;;;;;;;;;;;4910434;29;19929;-68
2023/12/04 03:52:47;;;;;;;;;;;;;;;;;;4909015;29;19922;-67
2023/12/04 03:55:12;;;;;;;;;;;;;;;;;;4924582;28;19942;-68
2023/12/04 03:57:38;;;;;;;;;;;;;;;;;;4923863;28;19966;-68
2023/12/04 04:00:03;;;;;;;;;;;;;;;;;;4908517;29;20009;-67
2023/12/04 04:02:28;;;;;;;;;;;;;;;;;;4909543;28;19970;-68
2023/12/04 04:04:56;;;;;;;;;;;;;;;;;;4912138;29;19923;-68
2023/12/04 04:07:25;;;;;;;;;;;;;;;;;;4911179;29;19923;-68
2023/12/04 04:09:50;;;;;;;;;;;;;;;;;;4927736;28;19930;-68
2023/12/04 04:12:15;;;;;;;;;;;;;;;;;;4923322;28;20123;-73
2023/12/04 04:14:43;;;;;;;;;;;;;;;;;;4921218;28;20497;-69
2023/12/04 04:17:09;;;;;;;;;;;;;;;;;;4908385;29;19938;-71
2023/12/04 04:19:36;;;;;;;;;;;;;;;;;;4921799;28;19923;-70
2023/12/04 04:22:02;;;;;;;;;;;;;;;;;;4921187;28;20006;-72
2023/12/04 04:24:27;;;;;;;;;;;;;;;;;;4922033;28;19919;-72
2023/12/04 04:26:53;;;;;;;;;;;;;;;;;;4893112;29;19919;-71
2023/12/04 04:29:18;;;;;;;;;;;;;;;;;;4922625;28;20364;-72
2023/12/04 04:31:47;;;;;;;;;;;;;;;;;;4891480;29;19978;-72
2023/12/04 04:34:12;;;;;;;;;;;;;;;;;;4891909;29;19933;-73
2023/12/04 04:36:38;;;;;;;;;;;;;;;;;;4921587;28;19934;-73
2023/12/04 04:39:06;;;;;;;;;;;;;;;;;;4908172;29;19919;-73
2023/12/04 04:41:31;;;;;;;;;;;;;;;;;;4922581;28;19970;-75
2023/12/04 04:43:57;;;;;;;;;;;;;;;;;;4923017;28;19927;-73
2023/12/04 04:46:22;;;;;;;;;;;;;;;;;;4893779;29;19923;-76
2023/12/04 04:48:47;;;;;;;;;;;;;;;;;;4893905;29;20074;-76
2023/12/04 04:51:13;;;;;;;;;;;;;;;;;;4922007;28;19923;-75
2023/12/04 04:53:38;;;;;;;;;;;;;;;;;;4924524;28;19959;-77
2023/12/04 04:56:03;;;;;;;;;;;;;;;;;;4909349;29;19927;-76
2023/12/04 04:58:28;;;;;;;;;;;;;;;;;;4895340;29;19927;-75
2023/12/04 05:00:54;;;;;;;;;;;;;;;;;;4896127;29;19919;-74
2023/12/04 05:03:19;;;;;;;;;;;;;;;;;;4897139;29;20294;-77
2023/12/04 05:05:50;;;;;;;;;;;;;;;;;;4926772;28;20339;-77
2023/12/04 05:08:17;;;;;;;;;;;;;;;;;;4910144;29;23311;-76
2023/12/04 05:10:42;;;;;;;;;;;;;;;;;;4912858;29;20022;-77
2023/12/04 05:13:08;;;;;;;;;;;;;;;;;;4928825;28;20326;-79
2023/12/04 05:15:33;;;;;;;;;;;;;;;;;;4911149;29;20021;-76
2023/12/04 05:17:58;;;;;;;;;;;;;;;;;;4895471;29;19919;-76
2023/12/04 05:20:24;;;;;;;;;;;;;;;;;;4926916;28;19919;-75
2023/12/04 05:22:50;;;;;;;;;;;;;;;;;;4913414;29;19985;-78
2023/12/04 05:25:15;;;;;;;;;;;;;;;;;;4912239;29;20449;-73
2023/12/04 05:27:40;;;;;;;;;;;;;;;;;;4926414;28;20268;-76
2023/12/04 05:30:06;;;;;;;;;;;;;;;;;;4895316;29;19959;-76
2023/12/04 05:35:23;;;;;;;;;;;;;;;;;;4929301;28;19933;-76
2023/12/04 05:37:51;;;;;;;;;;;;;;;;;;4928143;28;19923;-74
2023/12/04 05:43:33;;;;;;;;;;;;;;;;;;4897067;29;19938;-73
2023/12/04 05:46:01;;;;;;;;;;;;;;;;;;4912729;29;19925;-76
2023/12/04 05:48:27;;;;;;;;;;;;;;;;;;4926299;28;19919;-75
2023/12/04 05:50:52;;;;;;;;;;;;;;;;;;4909060;29;20025;-75
2023/12/04 05:53:17;;;;;;;;;;;;;;;;;;4893752;29;21620;-73
2023/12/04 05:55:46;;;;;;;;;;;;;;;;;;4924963;28;19923;-73
2023/12/04 05:58:11;;;;;;;;;;;;;;;;;;4911123;29;19919;-76
2023/12/04 06:00:36;;;;;;;;;;;;;;;;;;4910822;29;20355;-73
2023/12/04 06:03:02;;;;;;;;;;;;;;;;;;4910566;29;19998;-74
2023/12/04 06:05:28;;;;;;;;;;;;;;;;;;4924786;28;19969;-71
2023/12/04 06:07:53;;;;;;;;;;;;;;;;;;4895067;29;19942;-74
2023/12/04 06:10:18;;;;;;;;;;;;;;;;;;4909513;29;19923;-75
2023/12/04 06:12:44;;;;;;;;;;;;;;;;;;4925049;28;20371;-72
2023/12/04 06:15:09;;;;;;;;;;;;;;;;;;4925681;28;19923;-73
2023/12/04 06:17:34;;;;;;;;;;;;;;;;;;4923920;28;20021;-71
2023/12/04 06:20:00;;;;;;;;;;;;;;;;;;4920702;28;20264;-72
2023/12/04 06:25:41;;;;;;;;;;;;;;;;;;4896106;29;19930;-71
2023/12/04 06:28:06;;;;;;;;;;;;;;;;;;4924665;28;19966;-73
2023/12/04 06:30:32;;;;;;;;;;;;;;;;;;4909451;29;20010;-71
2023/12/04 06:32:57;;;;;;;;;;;;;;;;;;4923225;28;20059;-70
2023/12/04 06:35:22;;;;;;;;;;;;;;;;;;4894817;29;19925;-71
2023/12/04 06:37:48;;;;;;;;;;;;;;;;;;4922775;28;19966;-70
2023/12/04 06:40:13;;;;;;;;;;;;;;;;;;4908859;29;20051;-72
2023/12/04 06:42:39;;;;;;;;;;;;;;;;;;4923704;28;20552;-71
2023/12/04 06:45:04;;;;;;;;;;;;;;;;;;4924848;28;19977;-69
2023/12/04 06:47:29;;;;;;;;;;;;;;;;;;4894669;29;20031;-71
2023/12/04 06:49:54;;;;;;;;;;;;;;;;;;4925558;28;20384;-69
2023/12/04 06:52:20;;;;;;;;;;;;;;;;;;4923440;28;19919;-71
2023/12/04 06:54:45;;;;;;;;;;;;;;;;;;4894326;29;19930;-70
2023/12/04 06:57:11;;;;;;;;;;;;;;;;;;4919160;28;19950;-70
2023/12/04 06:59:36;;;;;;;;;;;;;;;;;;4924520;28;19923;-69
2023/12/04 07:02:02;;;;;;;;;;;;;;;;;;4923851;28;19922;-71
2023/12/04 07:04:27;;;;;;;;;;;;;;;;;;4894059;29;19919;-69
2023/12/04 07:06:52;;;;;;;;;;;;;;;;;;4923304;28;19923;-69
2023/12/04 07:09:18;;;;;;;;;;;;;;;;;;4924751;28;19923;-69
2023/12/04 07:11:43;;;;;;;;;;;;;;;;;;4906892;29;19927;-71
2023/12/04 07:14:09;;;;;;;;;;;;;;;;;;4927705;28;19922;-72
2023/12/04 07:16:34;;;;;;;;;;;;;;;;;;4912456;29;19977;-70
2023/12/04 07:22:19;;;;;;;;;;;;;;;;;;4910607;29;19966;-72
2023/12/04 07:24:44;;;;;;;;;;;;;;;;;;4911547;29;19927;-69
2023/12/04 07:27:10;;;;;;;;;;;;;;;;;;4911083;29;19971;-72
2023/12/04 07:29:37;;;;;;;;;;;;;;;;;;4913233;29;20417;-71
2023/12/04 07:34:47;;;;;;;;;;;;;;;;;;4913656;29;19926;-71
2023/12/04 07:37:12;;;;;;;;;;;;;;;;;;4909825;29;19985;-70
2023/12/04 07:39:38;;;;;;;;;;;;;;;;;;4929713;28;19962;-69
2023/12/04 07:42:03;;;;;;;;;;;;;;;;;;4911889;29;20960;-71
2023/12/04 07:44:28;;;;;;;;;;;;;;;;;;4926098;28;19923;-70
2023/12/04 07:46:54;;;;;;;;;;;;;;;;;;4926643;28;20324;-69
2023/12/04 07:49:19;;;;;;;;;;;;;;;;;;4927663;28;19919;-69
2023/12/04 07:51:45;;;;;;;;;;;;;;;;;;4910436;29;19923;-69
2023/12/04 07:57:26;;;;;;;;;;;;;;;;;;4912919;29;19978;-68
2023/12/04 07:59:53;;;;;;;;;;;;;;;;;;4909225;29;19923;-68
2023/12/04 08:02:18;;;;;;;;;;;;;;;;;;4914782;29;20461;-68
2023/12/04 08:04:43;;;;;;;;;;;;;;;;;;4912450;29;20002;-68
2023/12/04 08:07:09;;;;;;;;;;;;;;;;;;4911816;29;19921;-70
2023/12/04 08:09:34;;;;;;;;;;;;;;;;;;4912247;29;19926;-68
2023/12/04 08:12:00;;;;;;;;;;;;;;;;;;4922969;28;20105;-68
2023/12/04 08:14:28;;;;;;;;;;;;;;;;;;4922881;28;19920;-68
2023/12/04 08:16:53;;;;;;;;;;;;;;;;;;4922728;28;19939;-68
2023/12/04 08:19:22;;;;;;;;;;;;;;;;;;4922516;28;21984;-68
2023/12/04 08:21:48;;;;;;;;;;;;;;;;;;4906278;29;20062;-68
2023/12/04 08:24:13;;;;;;;;;;;;;;;;;;4892586;29;19923;-67
2023/12/04 08:26:38;;;;;;;;;;;;;;;;;;4923532;28;19915;-68
2023/12/04 08:29:04;;;;;;;;;;;;;;;;;;4921512;28;19919;-67
2023/12/04 08:31:29;;;;;;;;;;;;;;;;;;4892794;29;19927;-68
2023/12/04 08:33:55;;;;;;;;;;;;;;;;;;4910713;29;19951;-68
2023/12/04 08:36:21;;;;;;;;;;;;;;;;;;4926225;28;19931;-68
2023/12/04 08:38:46;;;;;;;;;;;;;;;;;;4911918;29;19923;-68
2023/12/04 08:41:11;;;;;;;;;;;;;;;;;;4897778;29;20132;-68
2023/12/04 08:43:37;;;;;;;;;;;;;;;;;;4926944;28;20587;-70
2023/12/04 08:46:02;;;;;;;;;;;;;;;;;;4926033;28;19923;-69
2023/12/04 08:48:28;;;;;;;;;;;;;;;;;;4910728;28;19923;-69
2023/12/04 08:53:46;;;;;;;;;;;;;;;;;;4895818;29;20482;-68
2023/12/04 08:56:12;;;;;;;;;;;;;;;;;;4926296;28;19923;-67
2023/12/04 08:58:40;;;;;;;;;;;;;;;;;;4925575;28;19915;-65
2023/12/04 09:01:06;;;;;;;;;;;;;;;;;;4912431;29;19927;-68
2023/12/04 09:06:48;;;;;;;;;;;;;;;;;;4895771;29;19974;-69
2023/12/04 09:09:15;;;;;;;;;;;;;;;;;;4926573;28;20002;-69
2023/12/04 09:11:41;;;;;;;;;;;;;;;;;;4927107;28;20344;-69
2023/12/04 09:14:06;;;;;;;;;;;;;;;;;;4926105;28;19927;-71
2023/12/04 09:16:31;;;;;;;;;;;;;;;;;;4926243;28;19930;-69
2023/12/04 09:18:57;;;;;;;;;;;;;;;;;;4926399;28;19928;-69
2023/12/04 09:21:22;;;;;;;;;;;;;;;;;;4925265;28;19919;-69
2023/12/04 09:23:53;;;;;;;;;;;;;;;;;;4910263;29;20099;-68
2023/12/04 09:26:18;;;;;;;;;;;;;;;;;;4925770;28;19946;-70
2023/12/04 09:28:44;;;;;;;;;;;;;;;;;;4912727;29;20257;-69
2023/12/04 09:31:09;;;;;;;;;;;;;;;;;;4925757;28;19930;-71
2023/12/04 09:33:35;;;;;;;;;;;;;;;;;;4912399;29;20067;-69
2023/12/04 09:36:01;;;;;;;;;;;;;;;;;;4910699;29;19927;-69
2023/12/04 09:38:26;;;;;;;;;;;;;;;;;;4926232;28;19930;-70
2023/12/04 09:40:52;;;;;;;;;;;;;;;;;;4913014;29;19970;-70
2023/12/04 09:43:17;;;;;;;;;;;;;;;;;;4925520;28;19924;-69
2023/12/04 09:45:43;;;;;;;;;;;;;;;;;;4925347;28;19946;-70
2023/12/04 09:48:09;;;;;;;;;;;;;;;;;;4895990;29;20567;-69
2023/12/04 09:50:34;;;;;;;;;;;;;;;;;;4896337;29;19919;-70
2023/12/04 09:53:01;;;;;;;;;;;;;;;;;;4894954;29;19965;-68
2023/12/04 09:55:29;;;;;;;;;;;;;;;;;;4910356;29;19927;-69
2023/12/04 09:57:57;;;;;;;;;;;;;;;;;;4925809;28;20610;-69
2023/12/04 10:00:22;;;;;;;;;;;;;;;;;;4926656;28;19923;-69
2023/12/04 10:02:47;;;;;;;;;;;;;;;;;;4894000;29;19929;-69
2023/12/04 10:05:13;;;;;;;;;;;;;;;;;;4898741;29;19919;-70
2023/12/04 10:07:38;;;;;;;;;;;;;;;;;;4895114;29;19923;-69
2023/12/04 10:10:07;;;;;;;;;;;;;;;;;;4924922;28;19923;-70
2023/12/04 10:12:36;;;;;;;;;;;;;;;;;;4926572;28;19923;-68
2023/12/04 10:15:02;;;;;;;;;;;;;;;;;;4924982;28;19919;-69
2023/12/04 10:17:27;;;;;;;;;;;;;;;;;;4897333;29;19931;-69
2023/12/04 10:19:53;;;;;;;;;;;;;;;;;;4928627;28;19979;-68
2023/12/04 10:22:18;;;;;;;;;;;;;;;;;;4895033;29;20050;-72
2023/12/04 10:24:43;;;;;;;;;;;;;;;;;;4927173;28;19961;-69
2023/12/04 10:27:11;;;;;;;;;;;;;;;;;;4896738;29;19934;-64
2023/12/04 10:29:36;;;;;;;;;;;;;;;;;;4895817;29;20118;-70
2023/12/04 10:32:05;;;;;;;;;;;;;;;;;;4896889;29;19919;-70
2023/12/04 10:34:33;;;;;;;;;;;;;;;;;;4926939;28;19975;-71
2023/12/04 10:37:01;;;;;;;;;;;;;;;;;;4897428;29;19924;-73
2023/12/04 10:39:28;;;;;;;;;;;;;;;;;;4928931;28;20541;-70
2023/12/04 10:41:53;;;;;;;;;;;;;;;;;;4926949;28;19919;-71
2023/12/04 10:44:19;;;;;;;;;;;;;;;;;;4914131;29;19970;-72
2023/12/04 10:46:44;;;;;;;;;;;;;;;;;;4927311;28;20292;-70
2023/12/04 10:49:09;;;;;;;;;;;;;;;;;;4897022;29;20403;-70
2023/12/04 10:51:35;;;;;;;;;;;;;;;;;;4910834;29;20008;-71
2023/12/04 10:54:01;;;;;;;;;;;;;;;;;;4924474;28;19919;-70
2023/12/04 10:56:27;;;;;;;;;;;;;;;;;;4909155;29;19942;-69
2023/12/04 10:58:53;;;;;;;;;;;;;;;;;;4912264;29;20002;-70
2023/12/04 11:01:18;;;;;;;;;;;;;;;;;;4924871;28;19923;-69
2023/12/04 11:03:48;;;;;;;;;;;;;;;;;;4909938;29;20045;-71
2023/12/04 11:06:14;;;;;;;;;;;;;;;;;;4922665;28;19938;-73
2023/12/04 11:08:39;;;;;;;;;;;;;;;;;;4911268;29;19923;-71
2023/12/04 11:11:07;;;;;;;;;;;;;;;;;;4909667;29;20458;-71
2023/12/04 11:13:32;;;;;;;;;;;;;;;;;;4926146;28;20006;-75
2023/12/04 11:15:58;;;;;;;;;;;;;;;;;;4925079;28;20010;-71
2023/12/04 11:18:23;;;;;;;;;;;;;;;;;;4911690;29;19923;-71
2023/12/04 11:20:49;;;;;;;;;;;;;;;;;;4929040;28;19967;-71
2023/12/04 11:23:17;;;;;;;;;;;;;;;;;;4893004;29;19923;-72
2023/12/04 11:25:42;;;;;;;;;;;;;;;;;;4909162;29;19915;-74
2023/12/04 11:28:07;;;;;;;;;;;;;;;;;;4922870;28;19927;-75
2023/12/04 11:30:35;;;;;;;;;;;;;;;;;;4923350;28;21424;-74
2023/12/04 11:33:01;;;;;;;;;;;;;;;;;;4896940;29;20868;-73
2023/12/04 11:35:26;;;;;;;;;;;;;;;;;;4893592;29;19978;-72
2023/12/04 11:37:52;;;;;;;;;;;;;;;;;;4894049;29;19926;-71
2023/12/04 11:40:25;;;;;;;;;;;;;;;;;;4926126;28;19927;-70
2023/12/04 11:42:59;;;;;;;;;;;;;;;;;;4924602;28;20038;-71
2023/12/04 11:48:14;;;;;;;;;;;;;;;;;;4893817;29;20360;-70
2023/12/04 11:50:44;;;;;;;;;;;;;;;;;;4908464;29;19930;-69
2023/12/04 11:53:11;;;;;;;;;;;;;;;;;;4924777;28;20060;-72
2023/12/04 11:55:36;;;;;;;;;;;;;;;;;;4907769;29;20058;-70
2023/12/04 11:58:05;;;;;;;;;;;;;;;;;;4893451;29;19923;-70
2023/12/04 12:00:35;;;;;;;;;;;;;;;;;;4923758;28;19923;-68
2023/12/04 12:03:06;;;;;;;;;;;;;;;;;;4894764;29;20674;-69
2023/12/04 12:05:32;;;;;;;;;;;;;;;;;;4924478;28;19926;-69
2023/12/04 12:07:58;;;;;;;;;;;;;;;;;;4926144;28;20413;-69
2023/12/04 12:10:26;;;;;;;;;;;;;;;;;;4928643;28;19939;-69
2023/12/04 12:12:51;;;;;;;;;;;;;;;;;;4928388;28;20351;-71
2023/12/04 12:15:17;;;;;;;;;;;;;;;;;;4929123;28;19967;-71
2023/12/04 12:17:42;;;;;;;;;;;;;;;;;;4897790;29;19926;-73
2023/12/04 12:20:10;;;;;;;;;;;;;;;;;;4930553;28;19934;-73
2023/12/04 12:22:44;;;;;;;;;;;;;;;;;;4912417;29;21520;-74
2023/12/04 12:25:09;;;;;;;;;;;;;;;;;;4913212;29;20383;-73
2023/12/04 12:27:35;;;;;;;;;;;;;;;;;;4901919;29;20057;-74
2023/12/04 12:30:03;;;;;;;;;;;;;;;;;;4927834;28;19915;-74
2023/12/04 12:32:28;;;;;;;;;;;;;;;;;;4927680;28;19930;-75
2023/12/04 12:34:54;;;;;;;;;;;;;;;;;;4927302;28;20075;-72
2023/12/04 12:37:19;;;;;;;;;;;;;;;;;;4926861;28;20275;-75
2023/12/04 12:39:47;;;;;;;;;;;;;;;;;;4929527;28;20264;-75
2023/12/04 12:45:29;;;;;;;;;;;;;;;;;;4898581;29;19926;-75
2023/12/04 12:47:58;;;;;;;;;;;;;;;;;;4929506;28;19931;-75
2023/12/04 12:50:23;;;;;;;;;;;;;;;;;;4897424;29;19923;-74
2023/12/04 12:52:49;;;;;;;;;;;;;;;;;;4923006;28;20277;-74
2023/12/04 12:58:13;;;;;;;;;;;;;;;;;;4947966;29;19937;-86
2023/12/04 13:00:38;;;;;;;;;;;;;;;;;;4936874;29;19915;-84
2023/12/04 13:03:12;;;;;;;;;;;;;;;;;;4947003;29;19926;-87
2023/12/04 13:05:43;;;;;;;;;;;;;;;;;;4949220;29;20433;-85
2023/12/04 13:08:12;;;;;;;;;;;;;;;;;;4962935;28;19946;-83
2023/12/04 13:10:38;;;;;;;;;;;;;;;;;;4931828;29;19978;-85
2023/12/04 13:13:03;;;;;;;;;;;;;;;;;;4918151;29;19943;-86
2023/12/04 13:15:29;;;;;;;;;;;;;;;;;;4913234;29;19915;-85
2023/12/04 13:17:54;;;;;;;;;;;;;;;;;;4928841;29;19922;-87
2023/12/04 13:20:19;;;;;;;;;;;;;;;;;;4943355;29;19914;-85
2023/12/04 13:22:45;;;;;;;;;;;;;;;;;;4926559;29;20304;-85
2023/12/04 13:25:10;;;;;;;;;;;;;;;;;;4913839;29;19926;-85
2023/12/04 13:27:38;;;;;;;;;;;;;;;;;;4944218;29;20285;-84
2023/12/04 13:30:03;;;;;;;;;;;;;;;;;;4908633;29;19923;-85
2023/12/04 13:32:29;;;;;;;;;;;;;;;;;;4927188;29;19925;-85
2023/12/04 13:34:56;;;;;;;;;;;;;;;;;;4939260;29;19931;-86
2023/12/04 13:37:31;;;;;;;;;;;;;;;;;;4914917;29;19974;-84
2023/12/04 13:40:06;;;;;;;;;;;;;;;;;;4938924;29;20811;-86
2023/12/04 13:45:15;;;;;;;;;;;;;;;;;;4927737;29;20018;-83
2023/12/04 13:47:42;;;;;;;;;;;;;;;;;;4945370;28;19965;-85
2023/12/04 13:50:10;;;;;;;;;;;;;;;;;;4916362;29;19915;-86
2023/12/04 13:52:36;;;;;;;;;;;;;;;;;;4925908;29;19922;-83
2023/12/04 13:55:14;;;;;;;;;;;;;;;;;;4940959;29;19923;-86
2023/12/04 13:57:54;;;;;;;;;;;;;;;;;;4907068;29;19935;-86
2023/12/04 14:00:23;;;;;;;;;;;;;;;;;;4921123;29;19915;-86
2023/12/04 14:02:53;;;;;;;;;;;;;;;;;;4924301;29;19919;-85
2023/12/04 14:05:21;;;;;;;;;;;;;;;;;;4911953;29;19915;-85
2023/12/04 14:07:47;;;;;;;;;;;;;;;;;;4932745;29;19934;-87
2023/12/04 14:10:14;;;;;;;;;;;;;;;;;;4913061;29;19915;-84
2023/12/04 14:12:39;;;;;;;;;;;;;;;;;;4943063;29;19910;-86
2023/12/04 14:15:05;;;;;;;;;;;;;;;;;;4929870;29;19915;-86
2023/12/04 14:17:33;;;;;;;;;;;;;;;;;;4917441;29;20000;-84
2023/12/04 14:19:59;;;;;;;;;;;;;;;;;;4920213;29;19918;-84
2023/12/04 14:22:25;;;;;;;;;;;;;;;;;;4951336;29;20046;-85
2023/12/04 14:24:54;;;;;;;;;;;;;;;;;;4951642;29;19922;-82
2023/12/04 14:27:19;;;;;;;;;;;;;;;;;;4917273;29;19918;-86
2023/12/04 14:29:45;;;;;;;;;;;;;;;;;;4911386;29;19925;-85
2023/12/04 14:32:10;;;;;;;;;;;;;;;;;;4911625;29;19943;-86
2023/12/04 14:34:35;;;;;;;;;;;;;;;;;;4916566;29;19916;-84
2023/12/04 14:37:00;;;;;;;;;;;;;;;;;;4936477;29;19985;-85
2023/12/04 14:39:27;;;;;;;;;;;;;;;;;;4921945;29;19915;-87
2023/12/04 14:41:52;;;;;;;;;;;;;;;;;;4954764;29;19939;-86
2023/12/04 14:44:17;;;;;;;;;;;;;;;;;;4920567;29;19940;-84
2023/12/04 14:46:43;;;;;;;;;;;;;;;;;;4935689;29;19917;-85
2023/12/04 14:49:08;;;;;;;;;;;;;;;;;;4916561;29;20046;-86
2023/12/04 14:51:33;;;;;;;;;;;;;;;;;;4907510;29;20264;-86
2023/12/04 14:54:51;;;;;;;;;;;;;;;;;;4906595;29;19922;-84
2023/12/04 15:01:03;;;;;;;;;;;;;;;;;;4942181;29;19997;-85
2023/12/04 15:02:52;;;;;;;;;;;;;;;;;;4939302;29;20022;-84
2023/12/04 15:05:40;;;;;;;;;;;;;;;;;;4923475;29;19914;-83
2023/12/04 15:11:25;;;;;;;;;;;;;;;;;;4938817;29;20009;-86
2023/12/04 15:16:25;;;;;;;;;;;;;;;;;;4939239;29;19915;-85
2023/12/04 15:21:47;;;;;;;;;;;;;;;;;;4933972;29;19915;-84
2023/12/04 15:24:12;;;;;;;;;;;;;;;;;;4951184;29;19914;-84
2023/12/04 15:26:38;;;;;;;;;;;;;;;;;;4925835;29;19919;-84
2023/12/04 15:29:05;;;;;;;;;;;;;;;;;;4934178;29;19923;-83
2023/12/04 15:31:32;;;;;;;;;;;;;;;;;;4933477;29;19994;-83
2023/12/04 15:33:57;;;;;;;;;;;;;;;;;;4931220;29;19915;-84
2023/12/04 15:36:23;;;;;;;;;;;;;;;;;;4939007;29;19925;-87
2023/12/04 15:38:48;;;;;;;;;;;;;;;;;;4952455;28;20014;-85
2023/12/04 15:41:14;;;;;;;;;;;;;;;;;;4904611;29;19915;-85
2023/12/04 15:43:44;;;;;;;;;;;;;;;;;;4907936;29;20014;-88
2023/12/04 15:46:11;;;;;;;;;;;;;;;;;;4938015;29;20017;-87
2023/12/04 15:48:45;;;;;;;;;;;;;;;;;;4952642;29;19911;-87
2023/12/04 15:51:11;;;;;;;;;;;;;;;;;;4906704;29;19915;-87
2023/12/04 15:53:36;;;;;;;;;;;;;;;;;;4938498;29;19934;-87
2023/12/04 15:56:04;;;;;;;;;;;;;;;;;;4936108;29;19951;-87
2023/12/04 15:58:42;;;;;;;;;;;;;;;;;;4905338;29;19915;-88
2023/12/04 16:01:13;;;;;;;;;;;;;;;;;;4925794;29;19946;-86
2023/12/04 16:03:39;;;;;;;;;;;;;;;;;;4919574;29;19995;-86
2023/12/04 16:06:07;;;;;;;;;;;;;;;;;;4922006;29;19973;-86
2023/12/04 16:08:32;;;;;;;;;;;;;;;;;;4902979;29;20402;-86
2023/12/04 16:10:58;;;;;;;;;;;;;;;;;;4935749;29;19966;-84
2023/12/04 16:13:23;;;;;;;;;;;;;;;;;;4906058;29;20396;-86
2023/12/04 16:15:48;;;;;;;;;;;;;;;;;;4934980;29;19962;-85
2023/12/04 16:18:14;;;;;;;;;;;;;;;;;;4918915;29;19978;-84
2023/12/04 16:20:40;;;;;;;;;;;;;;;;;;4952219;28;19926;-86
2023/12/04 16:23:06;;;;;;;;;;;;;;;;;;4906965;29;20237;-87
2023/12/04 16:25:45;;;;;;;;;;;;;;;;;;4906695;29;19925;-89
2023/12/04 16:28:29;;;;;;;;;;;;;;;;;;4903514;29;19990;-87
2023/12/04 16:31:09;;;;;;;;;;;;;;;;;;4953412;28;19926;-86
2023/12/04 16:33:34;;;;;;;;;;;;;;;;;;4937508;29;19915;-86
2023/12/04 16:36:00;;;;;;;;;;;;;;;;;;4906103;29;19926;-85
2023/12/04 16:38:26;;;;;;;;;;;;;;;;;;4950830;28;19982;-85
2023/12/04 16:40:59;;;;;;;;;;;;;;;;;;4921821;29;19911;-86
2023/12/04 16:43:26;;;;;;;;;;;;;;;;;;4935532;29;19985;-86
2023/12/04 16:45:54;;;;;;;;;;;;;;;;;;4920585;29;20058;-86
2023/12/04 16:48:19;;;;;;;;;;;;;;;;;;4907326;29;19915;-84
2023/12/04 16:50:45;;;;;;;;;;;;;;;;;;4919274;29;20103;-84
2023/12/04 16:53:11;;;;;;;;;;;;;;;;;;4956622;28;19978;-86
2023/12/04 16:55:36;;;;;;;;;;;;;;;;;;4918796;29;20006;-86
2023/12/04 16:58:04;;;;;;;;;;;;;;;;;;4911973;29;19923;-84
2023/12/04 17:00:29;;;;;;;;;;;;;;;;;;4890631;29;19919;-87
2023/12/04 17:02:55;;;;;;;;;;;;;;;;;;4897258;29;20329;-86
2023/12/04 17:05:24;;;;;;;;;;;;;;;;;;4889796;29;19920;-86
2023/12/04 17:07:49;;;;;;;;;;;;;;;;;;4904889;29;19935;-85
2023/12/04 17:10:15;;;;;;;;;;;;;;;;;;4886944;29;20696;-86
2023/12/04 17:13:03;;;;;;;;;;;;;;;;;;4886558;29;19976;-83
2023/12/04 17:15:36;;;;;;;;;;;;;;;;;;4901836;29;19928;-85
2023/12/04 17:18:03;;;;;;;;;;;;;;;;;;4901038;29;19923;-85
2023/12/04 17:20:32;;;;;;;;;;;;;;;;;;4884420;29;19923;-85
2023/12/04 17:22:58;;;;;;;;;;;;;;;;;;4886767;29;19980;-84
2023/12/04 17:25:24;;;;;;;;;;;;;;;;;;4902568;29;19919;-85
2023/12/04 17:27:51;;;;;;;;;;;;;;;;;;4880339;29;19963;-84
2023/12/04 17:30:24;;;;;;;;;;;;;;;;;;4883014;29;20010;-86